createdAt,value
2019-05-10T00:00:43.729Z,11.35
2019-05-10T00:01:43.698Z,11.33
2019-05-10T00:02:43.690Z,11.33
2019-05-10T00:03:43.793Z,11.29
2019-05-10T00:04:43.688Z,11.32
2019-05-10T00:05:43.670Z,11.29
2019-05-10T00:06:43.658Z,11.28
2019-05-10T00:07:43.629Z,11.28
2019-05-10T00:08:43.640Z,11.27
2019-05-10T00:09:43.733Z,11.25
2019-05-10T00:10:43.591Z,11.25
2019-05-10T00:11:43.640Z,11.27
2019-05-10T00:12:43.579Z,11.28
2019-05-10T00:13:43.580Z,11.28
2019-05-10T00:14:43.550Z,11.25
2019-05-10T00:15:43.560Z,11.25
2019-05-10T00:16:43.551Z,11.25
2019-05-10T00:17:43.544Z,11.25
2019-05-10T00:18:43.516Z,11.25
2019-05-10T00:19:43.511Z,11.24
2019-05-10T00:20:43.490Z,11.27
2019-05-10T00:21:43.490Z,11.25
2019-05-10T00:22:43.504Z,11.22
2019-05-10T00:23:43.572Z,11.24
2019-05-10T00:24:43.461Z,11.22
2019-05-10T00:25:43.470Z,11.21
2019-05-10T00:26:43.447Z,11.21
2019-05-10T00:27:43.411Z,11.19
2019-05-10T00:28:43.431Z,11.21
2019-05-10T00:29:43.411Z,11.21
2019-05-10T00:30:43.435Z,11.19
2019-05-10T00:31:43.391Z,11.21
2019-05-10T00:32:43.451Z,11.21
2019-05-10T00:33:43.341Z,11.24
2019-05-10T00:34:43.355Z,11.24
2019-05-10T00:35:43.445Z,11.25
2019-05-10T00:36:43.320Z,11.25
2019-05-10T00:37:43.301Z,11.24
2019-05-10T00:38:43.312Z,11.21
2019-05-10T00:39:43.351Z,11.17
2019-05-10T00:40:43.292Z,11.17
2019-05-10T00:41:43.268Z,11.15
2019-05-10T00:42:43.272Z,11.15
2019-05-10T00:43:43.236Z,11.15
2019-05-10T00:44:43.265Z,11.10
2019-05-10T00:45:43.232Z,11.09
2019-05-10T00:46:43.312Z,11.11
2019-05-10T00:47:43.222Z,11.14
2019-05-10T00:48:43.202Z,11.14
2019-05-10T00:49:43.204Z,11.10
2019-05-10T00:50:43.263Z,11.10
2019-05-10T00:51:43.162Z,11.10
2019-05-10T00:52:43.175Z,11.11
2019-05-10T00:53:43.145Z,11.11
2019-05-10T00:54:43.143Z,11.11
2019-05-10T00:55:43.134Z,11.11
2019-05-10T00:56:43.267Z,11.15
2019-05-10T00:57:43.105Z,11.17
2019-05-10T00:58:43.082Z,11.14
2019-05-10T00:59:43.063Z,11.11
2019-05-10T01:00:43.157Z,11.10
2019-05-10T01:01:43.143Z,11.09
2019-05-10T01:02:43.046Z,11.09
2019-05-10T01:03:43.053Z,11.10
2019-05-10T01:04:43.033Z,11.11
2019-05-10T01:05:43.024Z,11.10
2019-05-10T01:06:43.084Z,11.07
2019-05-10T01:07:42.973Z,11.10
2019-05-10T01:08:42.993Z,11.11
2019-05-10T01:09:42.956Z,11.10
2019-05-10T01:10:43.049Z,11.09
2019-05-10T01:11:43.076Z,11.09
2019-05-10T01:12:42.944Z,11.09
2019-05-10T01:13:42.955Z,11.07
2019-05-10T01:14:42.917Z,11.07
2019-05-10T01:15:46.427Z,11.06
2019-05-10T01:16:42.905Z,11.07
2019-05-10T01:17:42.899Z,11.06
2019-05-10T01:18:42.874Z,11.09
2019-05-10T01:19:42.875Z,11.07
2019-05-10T01:20:42.868Z,11.07
2019-05-10T01:21:42.865Z,11.07
2019-05-10T01:22:42.916Z,11.06
2019-05-10T01:23:42.895Z,11.07
2019-05-10T01:24:42.825Z,11.07
2019-05-10T01:25:42.808Z,11.06
2019-05-10T01:26:42.798Z,11.04
2019-05-10T01:27:42.778Z,11.04
2019-05-10T01:28:42.877Z,11.03
2019-05-10T01:29:42.745Z,11.03
2019-05-10T01:30:42.736Z,11.04
2019-05-10T01:31:42.715Z,11.00
2019-05-10T01:32:42.704Z,11.00
2019-05-10T01:33:42.724Z,10.99
2019-05-10T01:34:42.814Z,10.97
2019-05-10T01:35:42.695Z,10.94
2019-05-10T01:36:42.684Z,10.94
2019-05-10T01:37:42.666Z,10.94
2019-05-10T01:38:42.665Z,10.92
2019-05-10T01:39:42.737Z,10.91
2019-05-10T01:40:42.645Z,10.89
2019-05-10T01:41:42.641Z,10.92
2019-05-10T01:42:42.616Z,10.89
2019-05-10T01:43:42.718Z,10.91
2019-05-10T01:44:42.610Z,10.91
2019-05-10T01:45:42.586Z,10.91
2019-05-10T01:46:42.556Z,10.91
2019-05-10T01:47:57.415Z,10.89
2019-05-10T01:48:42.546Z,10.91
2019-05-10T01:49:42.650Z,10.91
2019-05-10T01:50:42.516Z,10.92
2019-05-10T01:51:42.540Z,10.91
2019-05-10T01:52:42.507Z,10.92
2019-05-10T01:53:42.501Z,10.91
2019-05-10T01:54:42.577Z,10.92
2019-05-10T01:55:51.575Z,10.91
2019-05-10T01:56:43.466Z,10.91
2019-05-10T01:57:42.456Z,10.89
2019-05-10T01:58:42.447Z,10.88
2019-05-10T01:59:42.517Z,10.88
2019-05-10T02:00:42.406Z,10.84
2019-05-10T02:01:42.409Z,10.84
2019-05-10T02:02:42.397Z,10.81
2019-05-10T02:03:42.387Z,10.81
2019-05-10T02:04:42.391Z,10.79
2019-05-10T02:05:42.367Z,10.79
2019-05-10T02:06:42.357Z,10.79
2019-05-10T02:07:42.328Z,10.76
2019-05-10T02:08:42.346Z,10.74
2019-05-10T02:09:42.428Z,10.71
2019-05-10T02:10:42.396Z,10.71
2019-05-10T02:11:42.277Z,10.70
2019-05-10T02:12:42.297Z,10.67
2019-05-10T02:13:42.278Z,10.66
2019-05-10T02:14:42.281Z,10.66
2019-05-10T02:15:42.358Z,10.63
2019-05-10T02:16:42.248Z,10.59
2019-05-10T02:17:42.218Z,10.53
2019-05-10T02:18:42.208Z,10.51
2019-05-10T02:19:42.227Z,10.48
2019-05-10T02:20:42.323Z,10.45
2019-05-10T02:21:42.197Z,10.42
2019-05-10T02:22:42.207Z,10.40
2019-05-10T02:23:42.177Z,10.40
2019-05-10T02:24:42.167Z,10.36
2019-05-10T02:25:42.139Z,10.33
2019-05-10T02:26:42.218Z,10.29
2019-05-10T02:27:42.121Z,10.27
2019-05-10T02:28:42.099Z,10.25
2019-05-10T02:29:42.131Z,10.22
2019-05-10T02:30:42.122Z,10.22
2019-05-10T02:31:42.096Z,10.17
2019-05-10T02:32:42.079Z,10.14
2019-05-10T02:33:42.077Z,10.11
2019-05-10T02:34:42.072Z,10.11
2019-05-10T02:35:42.053Z,10.09
2019-05-10T02:36:42.108Z,10.08
2019-05-10T02:37:42.053Z,10.08
2019-05-10T02:38:42.036Z,10.08
2019-05-10T02:39:42.010Z,10.07
2019-05-10T02:40:41.990Z,10.07
2019-05-10T02:41:42.050Z,10.07
2019-05-10T02:42:42.009Z,10.07
2019-05-10T02:43:41.940Z,10.08
2019-05-10T02:44:41.921Z,10.09
2019-05-10T02:45:41.943Z,10.08
2019-05-10T02:46:41.942Z,10.07
2019-05-10T02:47:41.928Z,10.02
2019-05-10T02:48:41.993Z,10.01
2019-05-10T02:49:41.900Z,10.02
2019-05-10T02:50:41.896Z,10.02
2019-05-10T02:51:41.941Z,10.04
2019-05-10T02:52:41.870Z,10.07
2019-05-10T02:53:41.942Z,10.07
2019-05-10T02:54:41.820Z,10.08
2019-05-10T02:55:41.811Z,10.07
2019-05-10T02:56:41.812Z,10.05
2019-05-10T02:57:41.820Z,10.04
2019-05-10T02:58:41.884Z,10.04
2019-05-10T02:59:41.794Z,10.05
2019-05-10T03:00:41.784Z,10.04
2019-05-10T03:01:41.760Z,10.02
2019-05-10T03:02:41.741Z,10.01
2019-05-10T03:03:41.723Z,10.04
2019-05-10T03:04:41.801Z,10.05
2019-05-10T03:05:41.731Z,10.01
2019-05-10T03:06:41.720Z,9.99
2019-05-10T03:07:41.700Z,9.94
2019-05-10T03:08:41.661Z,9.94
2019-05-10T03:09:41.742Z,9.94
2019-05-10T03:10:41.651Z,9.94
2019-05-10T03:11:41.660Z,9.94
2019-05-10T03:12:41.816Z,9.93
2019-05-10T03:13:41.712Z,9.94
2019-05-10T03:14:41.623Z,9.96
2019-05-10T03:15:41.592Z,9.97
2019-05-10T03:16:41.612Z,9.99
2019-05-10T03:17:41.575Z,10.01
2019-05-10T03:18:41.581Z,10.01
2019-05-10T03:19:41.653Z,10.02
2019-05-10T03:20:41.532Z,10.04
2019-05-10T03:21:41.541Z,10.04
2019-05-10T03:22:41.542Z,10.04
2019-05-10T03:23:41.541Z,10.02
2019-05-10T03:24:41.542Z,10.05
2019-05-10T03:25:41.608Z,10.04
2019-05-10T03:26:51.090Z,10.04
2019-05-10T03:27:42.482Z,10.02
2019-05-10T03:28:41.486Z,10.04
2019-05-10T03:29:41.463Z,10.07
2019-05-10T03:30:41.612Z,10.02
2019-05-10T03:31:41.443Z,10.02
2019-05-10T03:32:41.431Z,10.02
2019-05-10T03:33:41.449Z,10.04
2019-05-10T03:34:41.397Z,10.04
2019-05-10T03:35:41.473Z,10.05
2019-05-10T03:36:41.383Z,10.04
2019-05-10T03:37:41.367Z,10.04
2019-05-10T03:38:41.352Z,10.05
2019-05-10T03:39:41.457Z,10.07
2019-05-10T03:40:41.442Z,10.04
2019-05-10T03:41:41.331Z,10.05
2019-05-10T03:42:41.323Z,10.05
2019-05-10T03:43:41.355Z,10.07
2019-05-10T03:44:41.273Z,10.07
2019-05-10T03:45:41.283Z,10.05
2019-05-10T03:46:41.296Z,10.04
2019-05-10T03:47:41.263Z,10.04
2019-05-10T03:48:41.232Z,10.04
2019-05-10T03:49:41.315Z,10.05
2019-05-10T03:50:41.334Z,10.05
2019-05-10T03:51:41.216Z,10.04
2019-05-10T03:52:41.204Z,10.04
2019-05-10T03:53:41.216Z,10.07
2019-05-10T03:54:41.192Z,10.07
2019-05-10T03:55:41.237Z,10.04
2019-05-10T03:56:41.175Z,10.05
2019-05-10T03:57:41.163Z,10.08
2019-05-10T03:58:41.218Z,10.09
2019-05-10T03:59:41.144Z,10.08
2019-05-10T04:00:41.157Z,10.05
2019-05-10T04:01:41.117Z,10.05
2019-05-10T04:02:41.091Z,10.04
2019-05-10T04:03:41.143Z,10.04
2019-05-10T04:04:41.064Z,10.01
2019-05-10T04:05:41.054Z,9.97
2019-05-10T04:06:41.054Z,9.97
2019-05-10T04:07:41.035Z,9.97
2019-05-10T04:08:41.025Z,9.96
2019-05-10T04:09:41.094Z,9.96
2019-05-10T04:10:40.999Z,9.94
2019-05-10T04:11:40.999Z,9.94
2019-05-10T04:12:40.973Z,9.96
2019-05-10T04:13:40.964Z,9.99
2019-05-10T04:14:40.964Z,9.99
2019-05-10T04:15:40.945Z,9.96
2019-05-10T04:16:40.944Z,9.96
2019-05-10T04:17:40.945Z,9.94
2019-05-10T04:18:40.915Z,9.93
2019-05-10T04:19:40.909Z,9.90
2019-05-10T04:20:40.907Z,9.89
2019-05-10T04:21:40.884Z,9.89
2019-05-10T04:22:40.874Z,9.90
2019-05-10T04:23:40.874Z,9.89
2019-05-10T04:24:40.854Z,9.89
2019-05-10T04:25:40.837Z,9.89
2019-05-10T04:26:40.825Z,9.91
2019-05-10T04:27:40.834Z,9.90
2019-05-10T04:28:40.811Z,9.89
2019-05-10T04:29:40.796Z,9.90
2019-05-10T04:30:40.786Z,9.89
2019-05-10T04:31:40.787Z,9.89
2019-05-10T04:32:40.777Z,9.86
2019-05-10T04:33:40.745Z,9.83
2019-05-10T04:34:40.881Z,9.83
2019-05-10T04:35:40.758Z,9.79
2019-05-10T04:36:40.715Z,9.76
2019-05-10T04:37:40.707Z,9.76
2019-05-10T04:38:40.720Z,9.78
2019-05-10T04:39:40.685Z,9.74
2019-05-10T04:40:40.675Z,9.74
2019-05-10T04:41:40.706Z,9.72
2019-05-10T04:42:40.660Z,9.75
2019-05-10T04:43:40.645Z,9.76
2019-05-10T04:44:40.637Z,9.78
2019-05-10T04:45:40.664Z,9.76
2019-05-10T04:46:40.611Z,9.74
2019-05-10T04:47:40.617Z,9.72
2019-05-10T04:48:40.628Z,9.74
2019-05-10T04:49:40.586Z,9.74
2019-05-10T04:50:40.567Z,9.71
2019-05-10T04:51:40.566Z,9.69
2019-05-10T04:52:40.557Z,9.69
2019-05-10T04:53:40.537Z,9.65
2019-05-10T04:54:40.545Z,9.66
2019-05-10T04:55:40.529Z,9.64
2019-05-10T04:56:40.496Z,9.61
2019-05-10T04:57:49.981Z,9.64
2019-05-10T04:58:41.476Z,9.64
2019-05-10T04:59:40.489Z,9.68
2019-05-10T05:00:40.460Z,9.69
2019-05-10T05:01:40.437Z,9.69
2019-05-10T05:02:40.438Z,9.68
2019-05-10T05:03:40.418Z,9.66
2019-05-10T05:04:40.448Z,9.65
2019-05-10T05:05:40.419Z,9.61
2019-05-10T05:06:40.404Z,9.58
2019-05-10T05:07:40.376Z,9.58
2019-05-10T05:08:40.381Z,9.61
2019-05-10T05:09:40.355Z,9.64
2019-05-10T05:10:40.366Z,9.64
2019-05-10T05:11:40.356Z,9.61
2019-05-10T05:12:40.356Z,9.60
2019-05-10T05:13:40.319Z,9.56
2019-05-10T05:14:40.296Z,9.53
2019-05-10T05:15:40.401Z,9.54
2019-05-10T05:16:40.286Z,9.57
2019-05-10T05:17:40.329Z,9.60
2019-05-10T05:18:40.276Z,9.66
2019-05-10T05:19:40.987Z,9.71
2019-05-10T05:20:40.318Z,9.71
2019-05-10T05:21:40.246Z,9.71
2019-05-10T05:22:40.207Z,9.69
2019-05-10T05:23:40.215Z,9.69
2019-05-10T05:24:40.195Z,9.72
2019-05-10T05:25:41.823Z,9.74
2019-05-10T05:26:40.201Z,9.69
2019-05-10T05:27:40.187Z,9.69
2019-05-10T05:28:40.146Z,9.69
2019-05-10T05:29:40.168Z,9.71
2019-05-10T05:30:40.180Z,9.71
2019-05-10T05:31:40.137Z,9.71
2019-05-10T05:32:44.631Z,9.71
2019-05-10T05:33:41.199Z,9.71
2019-05-10T05:34:40.107Z,9.69
2019-05-10T05:35:40.098Z,9.68
2019-05-10T05:36:40.178Z,9.69
2019-05-10T05:37:40.077Z,9.72
2019-05-10T05:38:46.383Z,9.74
2019-05-10T05:39:41.058Z,9.74
2019-05-10T05:40:40.044Z,9.74
2019-05-10T05:41:49.451Z,9.76
2019-05-10T05:42:41.017Z,9.78
2019-05-10T05:43:45.648Z,9.75
2019-05-10T05:44:40.987Z,9.75
2019-05-10T05:45:39.980Z,9.75
2019-05-10T05:46:40.000Z,9.79
2019-05-10T05:47:42.117Z,9.79
2019-05-10T05:48:40.755Z,9.79
2019-05-10T05:49:39.961Z,9.79
2019-05-10T05:50:39.909Z,9.83
2019-05-10T05:51:39.922Z,9.84
2019-05-10T05:52:39.996Z,9.83
2019-05-10T05:53:42.370Z,9.84
2019-05-10T05:54:39.882Z,9.84
2019-05-10T05:55:39.889Z,9.86
2019-05-10T05:56:44.454Z,9.76
2019-05-10T05:57:40.948Z,9.83
2019-05-10T05:58:44.647Z,9.84
2019-05-10T05:59:40.838Z,9.86
2019-05-10T06:00:44.884Z,9.86
2019-05-10T06:01:40.892Z,9.87
2019-05-10T06:02:44.742Z,9.89
2019-05-10T06:03:40.798Z,9.87
2019-05-10T06:04:40.972Z,9.87
2019-05-10T06:05:40.749Z,9.87
2019-05-10T06:06:39.738Z,9.89
2019-05-10T06:07:39.749Z,9.90
2019-05-10T06:08:39.742Z,9.86
2019-05-10T06:09:39.752Z,9.89
2019-05-10T06:10:39.723Z,9.90
2019-05-10T06:11:39.689Z,9.91
2019-05-10T06:12:44.695Z,9.93
2019-05-10T06:13:40.667Z,9.93
2019-05-10T06:14:43.166Z,9.91
2019-05-10T06:15:40.739Z,9.91
2019-05-10T06:16:39.650Z,9.91
2019-05-10T06:17:39.725Z,9.91
2019-05-10T06:18:41.592Z,9.93
2019-05-10T06:19:40.698Z,9.93
2019-05-10T06:20:44.637Z,9.91
2019-05-10T06:21:40.628Z,9.93
2019-05-10T06:22:43.800Z,9.94
2019-05-10T06:23:40.561Z,9.96
2019-05-10T06:24:39.560Z,9.94
2019-05-10T06:25:42.386Z,9.94
2019-05-10T06:26:39.521Z,9.94
2019-05-10T06:27:40.867Z,9.94
2019-05-10T06:29:43.052Z,9.94
2019-05-10T06:30:39.510Z,9.94
2019-05-10T06:31:39.488Z,9.96
2019-05-10T06:32:39.480Z,9.97
2019-05-10T06:33:44.439Z,10.01
2019-05-10T06:34:40.440Z,9.97
2019-05-10T06:35:39.422Z,9.96
2019-05-10T06:36:39.458Z,9.93
2019-05-10T06:37:39.423Z,9.94
2019-05-10T06:38:39.404Z,9.96
2019-05-10T06:39:39.470Z,9.96
2019-05-10T06:40:46.330Z,9.97
2019-05-10T06:41:40.383Z,9.96
2019-05-10T06:42:39.370Z,9.99
2019-05-10T06:43:39.360Z,9.97
2019-05-10T06:44:39.453Z,9.97
2019-05-10T06:45:39.320Z,9.96
2019-05-10T06:46:39.301Z,9.97
2019-05-10T06:47:41.940Z,9.99
2019-05-10T06:48:40.315Z,9.99
2019-05-10T06:49:41.048Z,10.01
2019-05-10T06:50:40.361Z,9.99
2019-05-10T06:51:42.770Z,9.99
2019-05-10T06:52:40.263Z,9.97
2019-05-10T06:53:42.305Z,10.01
2019-05-10T06:54:40.211Z,10.02
2019-05-10T06:55:39.240Z,10.02
2019-05-10T06:56:39.215Z,10.04
2019-05-10T06:57:39.191Z,10.05
2019-05-10T06:58:39.181Z,10.05
2019-05-10T06:59:39.204Z,10.05
2019-05-10T07:00:45.051Z,10.05
2019-05-10T07:01:45.249Z,10.05
2019-05-10T07:02:40.161Z,10.07
2019-05-10T07:03:39.141Z,10.07
2019-05-10T07:04:41.143Z,10.08
2019-05-10T07:05:39.133Z,10.08
2019-05-10T07:06:39.092Z,10.08
2019-05-10T07:07:44.679Z,10.11
2019-05-10T07:08:44.350Z,10.11
2019-05-10T07:10:01.491Z,10.12
2019-05-10T07:10:40.153Z,10.12
2019-05-10T07:11:39.052Z,10.14
2019-05-10T07:12:39.156Z,10.11
2019-05-10T07:13:40.374Z,10.11
2019-05-10T07:14:45.531Z,10.12
2019-05-10T07:15:42.246Z,10.12
2019-05-10T07:16:39.082Z,10.14
2019-05-10T07:17:45.299Z,10.17
2019-05-10T07:18:40.075Z,10.20
2019-05-10T07:19:42.076Z,10.23
2019-05-10T07:20:43.014Z,10.26
2019-05-10T07:21:44.228Z,10.27
2019-05-10T07:22:39.922Z,10.29
2019-05-10T07:23:44.571Z,10.30
2019-05-10T07:24:39.929Z,10.32
2019-05-10T07:25:44.008Z,10.33
2019-05-10T07:26:39.903Z,10.36
2019-05-10T07:27:38.974Z,10.40
2019-05-10T07:28:38.887Z,10.41
2019-05-10T07:29:42.998Z,10.42
2019-05-10T07:30:41.485Z,10.44
2019-05-10T07:31:38.835Z,10.44
2019-05-10T07:32:38.847Z,10.48
2019-05-10T07:33:40.101Z,10.48
2019-05-10T07:34:38.871Z,10.51
2019-05-10T07:35:38.999Z,10.53
2019-05-10T07:36:38.773Z,10.59
2019-05-10T07:37:38.754Z,10.61
2019-05-10T07:38:38.783Z,10.64
2019-05-10T07:39:38.764Z,10.68
2019-05-10T07:40:38.844Z,10.71
2019-05-10T07:41:38.739Z,10.74
2019-05-10T07:42:39.730Z,10.78
2019-05-10T07:43:39.784Z,10.82
2019-05-10T07:44:41.595Z,10.81
2019-05-10T07:45:39.693Z,10.82
2019-05-10T07:46:40.177Z,10.88
2019-05-10T07:47:39.666Z,10.88
2019-05-10T07:48:41.337Z,10.92
2019-05-10T07:49:39.727Z,10.94
2019-05-10T07:50:42.650Z,11.00
2019-05-10T07:51:39.626Z,11.03
2019-05-10T07:52:43.494Z,11.07
2019-05-10T07:53:39.709Z,11.14
2019-05-10T07:54:45.295Z,11.18
2019-05-10T07:55:39.564Z,11.24
2019-05-10T07:56:38.985Z,11.18
2019-05-10T07:57:39.567Z,11.18
2019-05-10T07:58:43.303Z,11.19
2019-05-10T07:59:50.025Z,11.24
2019-05-10T08:00:44.584Z,11.27
2019-05-10T08:01:39.509Z,11.28
2019-05-10T08:02:38.515Z,11.28
2019-05-10T08:03:44.207Z,11.32
2019-05-10T08:04:39.519Z,11.27
2019-05-10T08:05:39.097Z,11.27
2019-05-10T08:06:44.155Z,11.25
2019-05-10T08:07:39.469Z,11.29
2019-05-10T08:08:39.129Z,11.29
2019-05-10T08:09:44.733Z,11.33
2019-05-10T08:10:39.571Z,11.33
2019-05-10T08:11:39.051Z,11.33
2019-05-10T08:12:41.298Z,11.35
2019-05-10T08:13:39.537Z,11.36
2019-05-10T08:14:39.424Z,11.37
2019-05-10T08:15:38.656Z,11.39
2019-05-10T08:16:38.820Z,11.40
2019-05-10T08:17:43.227Z,11.42
2019-05-10T08:18:42.011Z,11.42
2019-05-10T08:19:39.065Z,11.43
2019-05-10T08:20:49.537Z,11.39
2019-05-10T08:21:39.302Z,11.42
2019-05-10T08:22:41.653Z,11.37
2019-05-10T08:23:41.055Z,11.36
2019-05-10T08:24:38.270Z,11.36
2019-05-10T08:25:44.363Z,11.36
2019-05-10T08:26:39.248Z,11.35
2019-05-10T08:27:44.044Z,11.29
2019-05-10T08:28:43.874Z,11.28
2019-05-10T08:29:39.198Z,11.28
2019-05-10T08:30:42.796Z,11.32
2019-05-10T08:31:45.675Z,11.28
2019-05-10T08:32:39.163Z,11.33
2019-05-10T08:33:38.150Z,11.35
2019-05-10T08:34:40.236Z,11.28
2019-05-10T08:35:43.371Z,11.25
2019-05-10T08:36:45.779Z,11.25
2019-05-10T08:37:39.129Z,11.27
2019-05-10T08:38:39.744Z,11.25
2019-05-10T08:39:45.685Z,11.25
2019-05-10T08:40:39.084Z,11.27
2019-05-10T08:41:38.079Z,11.27
2019-05-10T08:42:45.274Z,11.28
2019-05-10T08:43:40.343Z,11.25
2019-05-10T08:44:38.030Z,11.22
2019-05-10T08:45:38.753Z,11.21
2019-05-10T08:46:41.596Z,11.22
2019-05-10T08:47:39.011Z,11.18
2019-05-10T08:48:42.949Z,11.21
2019-05-10T08:49:46.713Z,11.18
2019-05-10T08:50:49.737Z,11.17
2019-05-10T08:51:43.734Z,11.18
2019-05-10T08:52:39.034Z,11.14
2019-05-10T08:53:37.964Z,11.17
2019-05-10T08:54:37.942Z,11.22
2019-05-10T08:55:37.933Z,11.32
2019-05-10T08:56:37.893Z,11.42
2019-05-10T08:57:44.551Z,11.49
2019-05-10T08:58:38.922Z,11.54
2019-05-10T08:59:37.881Z,11.61
2019-05-10T09:00:49.260Z,11.67
2019-05-10T09:01:46.921Z,11.70
2019-05-10T09:02:38.843Z,11.73
2019-05-10T09:03:37.852Z,11.79
2019-05-10T09:04:43.741Z,11.90
2019-05-10T09:05:39.959Z,11.94
2019-05-10T09:06:37.792Z,11.98
2019-05-10T09:07:39.118Z,12.02
2019-05-10T09:08:37.774Z,12.10
2019-05-10T09:09:45.708Z,12.28
2019-05-10T09:10:38.773Z,12.42
2019-05-10T09:11:37.756Z,12.57
2019-05-10T09:12:44.236Z,12.68
2019-05-10T09:13:42.320Z,12.77
2019-05-10T09:14:38.704Z,12.75
2019-05-10T09:15:43.308Z,12.75
2019-05-10T09:16:43.362Z,12.75
2019-05-10T09:17:38.667Z,12.78
2019-05-10T09:18:38.234Z,12.74
2019-05-10T09:19:41.878Z,12.72
2019-05-10T09:20:38.665Z,12.72
2019-05-10T09:21:41.329Z,12.70
2019-05-10T09:22:38.861Z,12.70
2019-05-10T09:23:37.628Z,12.72
2019-05-10T09:24:47.377Z,12.75
2019-05-10T09:25:38.605Z,12.82
2019-05-10T09:26:37.586Z,12.89
2019-05-10T09:27:37.576Z,12.96
2019-05-10T09:28:37.556Z,13.03
2019-05-10T09:29:37.698Z,13.03
2019-05-10T09:30:53.185Z,13.07
2019-05-10T09:31:39.495Z,13.08
2019-05-10T09:32:39.919Z,13.15
2019-05-10T09:33:41.040Z,13.14
2019-05-10T09:34:38.499Z,13.11
2019-05-10T09:35:39.003Z,13.07
2019-05-10T09:36:38.568Z,13.04
2019-05-10T09:37:37.478Z,12.97
2019-05-10T09:38:39.657Z,12.89
2019-05-10T09:39:38.550Z,12.74
2019-05-10T09:40:42.494Z,12.62
2019-05-10T09:41:38.575Z,12.54
2019-05-10T09:42:40.281Z,12.46
2019-05-10T09:43:42.425Z,12.38
2019-05-10T09:44:38.408Z,12.32
2019-05-10T09:45:37.392Z,12.28
2019-05-10T09:46:37.361Z,12.21
2019-05-10T09:47:37.339Z,12.20
2019-05-10T09:48:37.339Z,12.14
2019-05-10T09:49:37.319Z,12.13
2019-05-10T09:50:42.117Z,12.04
2019-05-10T09:51:38.308Z,11.99
2019-05-10T09:52:37.303Z,11.94
2019-05-10T09:53:38.272Z,11.90
2019-05-10T09:54:38.094Z,11.88
2019-05-10T09:55:37.369Z,11.85
2019-05-10T09:56:39.539Z,11.85
2019-05-10T09:57:38.270Z,11.83
2019-05-10T09:58:38.644Z,11.85
2019-05-10T09:59:37.233Z,11.85
2019-05-10T10:00:38.019Z,11.85
2019-05-10T10:01:37.253Z,11.85
2019-05-10T10:02:40.256Z,11.88
2019-05-10T10:03:43.074Z,11.90
2019-05-10T10:04:38.170Z,11.85
2019-05-10T10:05:39.871Z,11.83
2019-05-10T10:06:41.928Z,11.85
2019-05-10T10:07:38.155Z,11.82
2019-05-10T10:08:38.396Z,11.83
2019-05-10T10:09:42.522Z,11.85
2019-05-10T10:10:38.101Z,11.82
2019-05-10T10:11:37.151Z,11.85
2019-05-10T10:12:37.438Z,11.90
2019-05-10T10:13:43.462Z,11.99
2019-05-10T10:14:42.579Z,12.07
2019-05-10T10:15:38.042Z,12.19
2019-05-10T10:16:37.138Z,12.27
2019-05-10T10:17:41.983Z,12.32
2019-05-10T10:18:38.024Z,12.38
2019-05-10T10:19:37.589Z,12.31
2019-05-10T10:20:43.413Z,12.31
2019-05-10T10:21:38.878Z,12.31
2019-05-10T10:22:38.129Z,12.28
2019-05-10T10:23:37.763Z,12.23
2019-05-10T10:24:40.484Z,12.20
2019-05-10T10:25:40.490Z,12.19
2019-05-10T10:26:38.092Z,12.19
2019-05-10T10:27:39.341Z,12.14
2019-05-10T10:28:39.508Z,12.12
2019-05-10T10:29:38.746Z,12.04
2019-05-10T10:30:37.458Z,11.99
2019-05-10T10:31:48.369Z,11.98
2019-05-10T10:32:37.874Z,11.98
2019-05-10T10:33:37.979Z,11.94
2019-05-10T10:34:38.661Z,11.90
2019-05-10T10:35:38.180Z,11.91
2019-05-10T10:36:40.182Z,11.95
2019-05-10T10:37:38.116Z,11.99
2019-05-10T10:38:45.042Z,12.04
2019-05-10T10:39:37.795Z,12.10
2019-05-10T10:40:44.316Z,12.12
2019-05-10T10:41:37.775Z,12.17
2019-05-10T10:42:38.028Z,12.21
2019-05-10T10:43:37.186Z,12.34
2019-05-10T10:44:37.169Z,12.41
2019-05-10T10:45:37.723Z,12.50
2019-05-10T10:46:36.716Z,12.54
2019-05-10T10:47:38.126Z,12.65
2019-05-10T10:48:37.079Z,12.71
2019-05-10T10:49:37.804Z,12.85
2019-05-10T10:50:36.673Z,12.97
2019-05-10T10:51:37.941Z,13.20
2019-05-10T10:52:37.651Z,13.39
2019-05-10T10:53:36.727Z,13.57
2019-05-10T10:54:39.804Z,13.73
2019-05-10T10:55:39.938Z,13.99
2019-05-10T10:56:37.432Z,14.22
2019-05-10T10:57:37.350Z,14.50
2019-05-10T10:58:36.579Z,14.70
2019-05-10T10:59:37.354Z,14.86
2019-05-10T11:00:38.796Z,14.96
2019-05-10T11:01:49.161Z,15.19
2019-05-10T11:02:41.100Z,15.41
2019-05-10T11:03:36.520Z,15.57
2019-05-10T11:04:40.421Z,15.67
2019-05-10T11:05:37.520Z,15.71
2019-05-10T11:06:36.511Z,15.71
2019-05-10T11:07:38.769Z,15.76
2019-05-10T11:08:37.474Z,15.89
2019-05-10T11:09:36.482Z,16.05
2019-05-10T11:10:36.471Z,16.24
2019-05-10T11:11:44.793Z,16.25
2019-05-10T11:12:36.428Z,16.24
2019-05-10T11:13:43.964Z,16.14
2019-05-10T11:14:40.077Z,16.21
2019-05-10T11:15:37.421Z,16.27
2019-05-10T11:16:36.419Z,16.24
2019-05-10T11:17:36.369Z,16.23
2019-05-10T11:18:36.380Z,16.28
2019-05-10T11:19:36.392Z,16.21
2019-05-10T11:20:36.397Z,16.20
2019-05-10T11:21:36.361Z,16.23
2019-05-10T11:22:41.948Z,16.24
2019-05-10T11:23:39.006Z,16.21
2019-05-10T11:24:36.334Z,16.21
2019-05-10T11:25:36.291Z,16.20
2019-05-10T11:26:37.056Z,16.17
2019-05-10T11:27:36.271Z,16.25
2019-05-10T11:28:43.922Z,16.33
2019-05-10T11:29:37.263Z,16.41
2019-05-10T11:30:36.265Z,16.45
2019-05-10T11:31:36.254Z,16.41
2019-05-10T11:32:36.243Z,16.27
2019-05-10T11:33:36.323Z,16.21
2019-05-10T11:34:37.987Z,16.17
2019-05-10T11:35:36.205Z,16.21
2019-05-10T11:36:40.526Z,16.21
2019-05-10T11:37:37.254Z,16.20
2019-05-10T11:38:36.144Z,16.07
2019-05-10T11:39:45.473Z,16.02
2019-05-10T11:40:37.223Z,15.96
2019-05-10T11:41:36.145Z,15.83
2019-05-10T11:42:37.592Z,15.75
2019-05-10T11:43:37.195Z,15.76
2019-05-10T11:44:41.422Z,15.74
2019-05-10T11:45:37.097Z,15.75
2019-05-10T11:46:36.087Z,15.80
2019-05-10T11:47:36.057Z,15.84
2019-05-10T11:48:38.831Z,15.89
2019-05-10T11:49:36.027Z,15.90
2019-05-10T11:50:36.156Z,15.84
2019-05-10T11:51:36.029Z,15.83
2019-05-10T11:52:36.524Z,15.75
2019-05-10T11:53:36.119Z,15.71
2019-05-10T11:54:36.099Z,15.72
2019-05-10T11:55:39.789Z,15.80
2019-05-10T11:56:36.949Z,15.89
2019-05-10T11:57:36.080Z,15.90
2019-05-10T11:58:37.672Z,15.90
2019-05-10T11:59:39.122Z,15.90
2019-05-10T12:00:35.919Z,15.93
2019-05-10T12:01:41.198Z,16.00
2019-05-10T12:03:36.892Z,16.02
2019-05-10T12:04:39.158Z,16.04
2019-05-10T12:05:35.934Z,16.08
2019-05-10T12:06:41.461Z,16.11
2019-05-10T12:07:43.368Z,16.20
2019-05-10T12:08:36.954Z,16.31
2019-05-10T12:09:35.933Z,16.39
2019-05-10T12:10:35.843Z,16.45
2019-05-10T12:11:43.815Z,16.52
2019-05-10T12:12:54.479Z,16.60
2019-05-10T12:13:36.801Z,16.70
2019-05-10T12:14:35.791Z,16.79
2019-05-10T12:15:35.763Z,16.88
2019-05-10T12:16:35.785Z,16.94
2019-05-10T12:17:35.760Z,17.00
2019-05-10T12:18:36.448Z,17.04
2019-05-10T12:19:44.186Z,17.11
2019-05-10T12:20:52.072Z,17.18
2019-05-10T12:21:36.715Z,17.31
2019-05-10T12:22:42.146Z,17.38
2019-05-10T12:23:45.761Z,17.44
2019-05-10T12:24:52.486Z,17.46
2019-05-10T12:25:51.373Z,17.43
2019-05-10T12:26:06.157Z,16.00
2019-05-10T12:27:45.083Z,17.37
2019-05-10T12:28:36.708Z,17.19
2019-05-10T12:29:35.656Z,17.07
2019-05-10T12:30:37.286Z,16.97
2019-05-10T12:31:35.621Z,16.89
2019-05-10T12:32:38.869Z,16.86
2019-05-10T12:33:36.669Z,16.82
2019-05-10T12:34:35.549Z,16.81
2019-05-10T12:35:39.827Z,16.79
2019-05-10T12:36:36.563Z,16.85
2019-05-10T12:37:39.605Z,16.97
2019-05-10T12:38:38.424Z,16.98
2019-05-10T12:39:35.606Z,17.04
2019-05-10T12:40:35.491Z,17.08
2019-05-10T12:41:39.750Z,17.18
2019-05-10T12:42:36.491Z,17.23
2019-05-10T12:43:35.472Z,17.26
2019-05-10T12:44:38.924Z,17.26
2019-05-10T12:45:36.533Z,17.22
2019-05-10T12:46:38.729Z,17.18
2019-05-10T12:47:36.425Z,17.19
2019-05-10T12:48:35.893Z,17.25
2019-05-10T12:49:36.484Z,17.28
2019-05-10T12:50:35.405Z,17.34
2019-05-10T12:51:35.428Z,17.40
2019-05-10T12:52:35.426Z,17.41
2019-05-10T12:53:36.745Z,17.49
2019-05-10T12:54:36.365Z,17.49
2019-05-10T12:55:35.340Z,17.51
2019-05-10T12:56:43.749Z,17.55
2019-05-10T12:57:36.407Z,17.59
2019-05-10T12:58:35.328Z,17.54
2019-05-10T12:59:36.601Z,17.44
2019-05-10T13:00:35.287Z,17.34